Time;durP1;ratioP1;P1;durP2;ratioP2;P2;SDS_P1;SDS_P2;PMS_P1;PMS_P2;Temp;Humidity;BMP_temperature;BMP_pressure;BME280_temperature;BME280_humidity;BME280_pressure;Samples;Min_cycle;Max_cycle;Signal;HPM_P1;HPM_P2
2024/01/24 00:01:08;;;;;;;2.80;0.37;;;;;;;;;;5261651;28;20025;-79
2024/01/24 00:03:40;;;;;;;1.50;0.30;;;;;;;;;;5260764;28;20758;-79
2024/01/24 00:06:11;;;;;;;1.85;0.28;;;;;;;;;;5261401;28;20048;-78
2024/01/24 00:08:42;;;;;;;1.93;0.20;;;;;;;;;;5261495;28;20025;-78
2024/01/24 00:11:13;;;;;;;2.20;0.40;;;;;;;;;;5260104;28;20255;-78
2024/01/24 00:13:44;;;;;;;2.72;0.75;;;;;;;;;;5261493;28;20047;-80
2024/01/24 00:16:16;;;;;;;1.92;0.30;;;;;;;;;;5261334;28;20017;-78
2024/01/24 00:18:47;;;;;;;2.42;0.32;;;;;;;;;;5260425;28;20068;-78
2024/01/24 00:21:18;;;;;;;1.17;0.20;;;;;;;;;;5261252;28;20021;-78
2024/01/24 00:23:49;;;;;;;2.45;0.52;;;;;;;;;;5261323;28;20053;-78
2024/01/24 00:26:20;;;;;;;2.47;0.20;;;;;;;;;;5260186;28;20052;-79
2024/01/24 00:28:52;;;;;;;1.33;0.20;;;;;;;;;;5261164;28;20479;-78
2024/01/24 00:31:23;;;;;;;1.47;0.20;;;;;;;;;;5260663;28;20734;-77
2024/01/24 00:33:54;;;;;;;2.20;0.20;;;;;;;;;;5260748;28;20631;-78
2024/01/24 00:36:25;;;;;;;1.73;0.20;;;;;;;;;;5260870;28;20282;-77
2024/01/24 00:38:57;;;;;;;1.15;0.20;;;;;;;;;;5260279;28;20104;-78
2024/01/24 00:41:28;;;;;;;1.40;0.20;;;;;;;;;;5260851;28;20515;-78
2024/01/24 00:43:59;;;;;;;1.70;0.20;;;;;;;;;;5260829;28;20025;-77
2024/01/24 00:46:30;;;;;;;1.75;0.17;;;;;;;;;;5260080;28;20025;-78
2024/01/24 00:49:02;;;;;;;1.08;0.20;;;;;;;;;;5260820;28;20049;-78
2024/01/24 00:51:33;;;;;;;1.33;0.20;;;;;;;;;;5260879;28;20469;-78
2024/01/24 00:54:05;;;;;;;2.45;0.20;;;;;;;;;;5259800;28;20048;-78
2024/01/24 00:56:36;;;;;;;1.55;0.10;;;;;;;;;;5260558;28;20478;-77
2024/01/24 00:59:07;;;;;;;1.13;0.20;;;;;;;;;;5260836;28;20048;-78
2024/01/24 01:01:38;;;;;;;1.05;0.20;;;;;;;;;;5260033;28;20260;-78
2024/01/24 01:04:10;;;;;;;3.60;0.17;;;;;;;;;;5260804;28;20044;-79
2024/01/24 01:06:41;;;;;;;1.83;0.22;;;;;;;;;;5260558;28;20064;-79
2024/01/24 01:09:12;;;;;;;1.07;0.20;;;;;;;;;;5260107;28;20051;-78
2024/01/24 01:11:43;;;;;;;0.68;0.20;;;;;;;;;;5260838;28;20283;-79
2024/01/24 01:14:14;;;;;;;0.50;0.10;;;;;;;;;;5259966;28;20086;-78
2024/01/24 01:16:45;;;;;;;1.85;0.28;;;;;;;;;;5260655;28;20040;-78
2024/01/24 01:19:16;;;;;;;2.40;0.32;;;;;;;;;;5260506;28;20379;-77
2024/01/24 01:21:48;;;;;;;1.02;0.20;;;;;;;;;;5260952;28;20090;-77
2024/01/24 01:24:19;;;;;;;1.05;0.20;;;;;;;;;;5264897;28;20056;-77
2024/01/24 01:26:50;;;;;;;0.57;0.10;;;;;;;;;;5264683;28;20074;-77
2024/01/24 01:29:21;;;;;;;1.08;0.20;;;;;;;;;;5263490;28;20021;-78
2024/01/24 01:31:52;;;;;;;0.68;0.20;;;;;;;;;;5264897;28;20447;-77
2024/01/24 01:34:23;;;;;;;0.65;0.20;;;;;;;;;;5264273;28;20063;-78
2024/01/24 01:36:55;;;;;;;0.57;0.15;;;;;;;;;;5264200;28;20045;-78
2024/01/24 01:39:26;;;;;;;1.45;0.40;;;;;;;;;;5264236;28;20078;-78
2024/01/24 01:41:57;;;;;;;1.30;0.10;;;;;;;;;;5263764;28;20358;-78
2024/01/24 01:44:28;;;;;;;1.90;0.20;;;;;;;;;;5264115;28;20013;-78
2024/01/24 01:46:59;;;;;;;1.48;0.20;;;;;;;;;;5264168;28;20485;-79
2024/01/24 01:49:30;;;;;;;0.85;0.35;;;;;;;;;;5263290;28;20017;-80
2024/01/24 01:52:02;;;;;;;0.68;0.10;;;;;;;;;;5264261;28;20353;-77
2024/01/24 01:54:33;;;;;;;0.57;0.10;;;;;;;;;;5264077;28;20037;-78
2024/01/24 01:57:05;;;;;;;0.45;0.10;;;;;;;;;;5263366;28;20029;-78
2024/01/24 01:59:40;;;;;;;0.95;0.10;;;;;;;;;;5264207;28;20013;-78
2024/01/24 02:02:13;;;;;;;0.30;0.10;;;;;;;;;;5264029;28;20075;-78
2024/01/24 02:04:44;;;;;;;0.40;0.10;;;;;;;;;;5263081;28;20021;-78
2024/01/24 02:07:15;;;;;;;0.50;0.10;;;;;;;;;;5263726;28;20407;-77
2024/01/24 02:09:46;;;;;;;0.60;0.10;;;;;;;;;;5263717;28;20039;-78
2024/01/24 02:12:17;;;;;;;0.35;0.10;;;;;;;;;;5263166;28;20476;-77
2024/01/24 02:14:49;;;;;;;1.75;0.10;;;;;;;;;;5264067;28;20021;-76
2024/01/24 02:17:20;;;;;;;0.30;0.10;;;;;;;;;;5262747;28;20025;-76
2024/01/24 02:19:51;;;;;;;0.73;0.10;;;;;;;;;;5263623;28;20104;-76
2024/01/24 02:22:22;;;;;;;0.10;0.05;;;;;;;;;;5263348;28;20071;-76
2024/01/24 02:24:53;;;;;;;0.30;0.10;;;;;;;;;;5263277;28;20096;-76
2024/01/24 02:27:25;;;;;;;1.65;0.10;;;;;;;;;;5263070;28;20350;-76
2024/01/24 02:29:57;;;;;;;1.33;0.10;;;;;;;;;;5263702;28;20108;-77
2024/01/24 02:32:28;;;;;;;0.30;0.00;;;;;;;;;;5262371;28;20104;-76
2024/01/24 02:34:59;;;;;;;0.30;0.00;;;;;;;;;;5262446;28;20108;-76
2024/01/24 02:37:30;;;;;;;1.05;0.10;;;;;;;;;;5263429;28;20366;-75
2024/01/24 02:40:02;;;;;;;0.20;0.00;;;;;;;;;;5262630;28;20021;-75
2024/01/24 02:42:33;;;;;;;0.28;0.10;;;;;;;;;;5263156;28;20013;-74
2024/01/24 02:45:06;;;;;;;0.20;0.10;;;;;;;;;;5263062;28;20020;-76
2024/01/24 02:47:37;;;;;;;0.25;0.05;;;;;;;;;;5262053;28;20052;-76
2024/01/24 02:50:08;;;;;;;0.43;0.10;;;;;;;;;;5263178;28;20043;-76
2024/01/24 02:52:40;;;;;;;0.22;0.00;;;;;;;;;;5262082;28;20066;-76
2024/01/24 02:55:14;;;;;;;0.08;0.00;;;;;;;;;;5262798;28;20056;-76
2024/01/24 02:57:45;;;;;;;0.20;0.00;;;;;;;;;;5262977;28;20027;-75
2024/01/24 03:00:16;;;;;;;0.00;0.00;;;;;;;;;;5262247;28;20353;-75
2024/01/24 03:02:48;;;;;;;0.10;0.00;;;;;;;;;;5262797;28;20017;-76
2024/01/24 03:05:19;;;;;;;0.28;0.08;;;;;;;;;;5262680;28;20017;-76
2024/01/24 03:07:50;;;;;;;0.20;0.10;;;;;;;;;;5261841;28;20598;-77
2024/01/24 03:10:22;;;;;;;0.10;0.00;;;;;;;;;;5262562;28;20099;-77
2024/01/24 03:12:54;;;;;;;0.28;0.13;;;;;;;;;;5263156;28;20063;-77
2024/01/24 03:15:25;;;;;;;0.20;0.10;;;;;;;;;;5261326;28;20025;-77
2024/01/24 03:17:56;;;;;;;0.77;0.15;;;;;;;;;;5262620;28;20384;-77
2024/01/24 03:20:28;;;;;;;0.30;0.10;;;;;;;;;;5261793;28;20024;-78
2024/01/24 03:22:59;;;;;;;0.32;0.10;;;;;;;;;;5262666;28;20055;-77
2024/01/24 03:25:30;;;;;;;0.60;0.10;;;;;;;;;;5262326;28;20115;-78
2024/01/24 03:28:01;;;;;;;0.63;0.10;;;;;;;;;;5261713;28;20029;-77
2024/01/24 03:30:33;;;;;;;0.65;0.10;;;;;;;;;;5262280;28;20009;-78
2024/01/24 03:33:05;;;;;;;1.27;0.10;;;;;;;;;;5262272;28;20099;-78
2024/01/24 03:35:36;;;;;;;0.55;0.15;;;;;;;;;;5261344;28;20464;-78
2024/01/24 03:38:08;;;;;;;0.77;0.10;;;;;;;;;;5262110;28;20032;-78
2024/01/24 03:40:39;;;;;;;0.60;0.10;;;;;;;;;;5262070;28;20260;-78
2024/01/24 03:43:10;;;;;;;0.30;0.10;;;;;;;;;;5261030;28;20021;-77
2024/01/24 03:45:42;;;;;;;2.05;0.20;;;;;;;;;;5260846;28;20579;-78
2024/01/24 03:48:13;;;;;;;1.30;0.10;;;;;;;;;;5261726;28;20380;-78
2024/01/24 03:50:44;;;;;;;1.05;0.10;;;;;;;;;;5260990;28;20020;-78
2024/01/24 03:53:15;;;;;;;1.55;0.20;;;;;;;;;;5261832;28;20070;-78
2024/01/24 03:55:46;;;;;;;2.37;0.30;;;;;;;;;;5260924;28;20054;-79
2024/01/24 03:58:18;;;;;;;1.80;0.40;;;;;;;;;;5261983;28;20271;-78
2024/01/24 04:00:52;;;;;;;3.38;0.50;;;;;;;;;;5261755;28;20259;-78
2024/01/24 04:03:23;;;;;;;3.50;0.38;;;;;;;;;;5260434;28;20108;-78
2024/01/24 04:05:54;;;;;;;7.95;0.60;;;;;;;;;;5261789;28;20096;-79
2024/01/24 04:08:25;;;;;;;4.18;0.50;;;;;;;;;;5261473;28;20063;-78
2024/01/24 04:10:56;;;;;;;4.10;0.50;;;;;;;;;;5261115;28;20025;-80
2024/01/24 04:13:28;;;;;;;4.33;0.60;;;;;;;;;;5261453;28;20067;-78
2024/01/24 04:15:59;;;;;;;6.45;1.05;;;;;;;;;;5261277;28;20350;-79
2024/01/24 04:18:32;;;;;;;9.02;0.90;;;;;;;;;;5260488;28;20267;-78
2024/01/24 04:21:03;;;;;;;8.32;1.27;;;;;;;;;;5261556;28;20357;-79
2024/01/24 04:23:35;;;;;;;6.68;0.85;;;;;;;;;;5261444;28;20059;-79
2024/01/24 04:26:07;;;;;;;8.68;0.98;;;;;;;;;;5260375;28;20027;-79
2024/01/24 04:28:38;;;;;;;8.15;0.70;;;;;;;;;;5261243;28;20017;-78
2024/01/24 04:31:09;;;;;;;7.95;0.60;;;;;;;;;;5260399;28;20009;-78
2024/01/24 04:33:41;;;;;;;9.30;1.15;;;;;;;;;;5261208;28;20376;-79
2024/01/24 04:36:12;;;;;;;10.10;0.90;;;;;;;;;;5261204;28;20604;-78
2024/01/24 04:38:43;;;;;;;10.18;1.20;;;;;;;;;;5260402;28;20048;-79
2024/01/24 04:41:14;;;;;;;11.27;1.48;;;;;;;;;;5261064;28;20044;-78
2024/01/24 04:43:46;;;;;;;11.50;1.77;;;;;;;;;;5261385;28;20020;-78
2024/01/24 04:46:17;;;;;;;12.43;1.48;;;;;;;;;;5260548;28;20273;-78
2024/01/24 04:48:48;;;;;;;10.90;1.30;;;;;;;;;;5262296;28;20357;-78
2024/01/24 04:51:21;;;;;;;9.38;1.33;;;;;;;;;;5262400;28;20017;-78
2024/01/24 04:53:52;;;;;;;8.32;1.00;;;;;;;;;;5261044;28;20033;-79
2024/01/24 04:56:24;;;;;;;13.18;1.90;;;;;;;;;;5261899;28;20037;-79
2024/01/24 04:58:55;;;;;;;14.23;2.13;;;;;;;;;;5261685;28;20044;-79
2024/01/24 05:01:26;;;;;;;11.15;1.67;;;;;;;;;;5261895;28;20055;-79
2024/01/24 05:03:58;;;;;;;14.25;2.53;;;;;;;;;;5261394;28;20017;-78
2024/01/24 05:06:29;;;;;;;12.35;1.73;;;;;;;;;;5260998;28;20078;-79
2024/01/24 05:09:01;;;;;;;14.88;2.05;;;;;;;;;;5261908;28;20021;-79
2024/01/24 05:11:32;;;;;;;23.05;3.30;;;;;;;;;;5261886;28;20025;-79
2024/01/24 05:14:03;;;;;;;16.23;2.03;;;;;;;;;;5261685;28;20048;-79
2024/01/24 05:16:39;;;;;;;11.90;1.40;;;;;;;;;;5261694;28;20048;-78
2024/01/24 05:19:10;;;;;;;16.02;2.83;;;;;;;;;;5260719;28;20021;-79
2024/01/24 05:21:41;;;;;;;13.55;2.22;;;;;;;;;;5259948;28;20071;-80
2024/01/24 05:24:13;;;;;;;12.93;2.42;;;;;;;;;;5260598;28;20021;-79
2024/01/24 05:26:46;;;;;;;11.85;2.08;;;;;;;;;;5260438;28;20028;-79
2024/01/24 05:29:17;;;;;;;19.13;2.55;;;;;;;;;;5259917;28;20480;-79
2024/01/24 05:31:48;;;;;;;18.10;2.40;;;;;;;;;;5260566;28;20045;-79
2024/01/24 05:34:19;;;;;;;16.02;1.98;;;;;;;;;;5259747;28;20033;-78
2024/01/24 05:36:53;;;;;;;13.55;2.65;;;;;;;;;;5260479;28;20275;-79
2024/01/24 05:39:24;;;;;;;13.77;2.28;;;;;;;;;;5260059;28;20049;-79
2024/01/24 05:41:56;;;;;;;13.85;2.28;;;;;;;;;;5259964;28;20479;-78
2024/01/24 05:44:27;;;;;;;16.42;3.53;;;;;;;;;;5262393;28;20028;-78
2024/01/24 05:46:58;;;;;;;12.23;2.15;;;;;;;;;;5265914;28;20032;-79
2024/01/24 05:49:29;;;;;;;14.27;2.17;;;;;;;;;;5259592;28;20013;-79
2024/01/24 05:52:00;;;;;;;15.25;2.72;;;;;;;;;;5260264;28;20013;-80
2024/01/24 05:54:32;;;;;;;19.80;3.13;;;;;;;;;;5259990;28;20495;-79
2024/01/24 05:57:03;;;;;;;17.10;2.92;;;;;;;;;;5259756;28;20025;-79
2024/01/24 05:59:34;;;;;;;15.88;3.25;;;;;;;;;;5260264;28;20028;-79
2024/01/24 06:02:05;;;;;;;18.65;2.75;;;;;;;;;;5260295;28;20028;-79
2024/01/24 06:04:37;;;;;;;20.60;3.70;;;;;;;;;;5259434;28;20021;-79
2024/01/24 06:07:09;;;;;;;14.77;2.78;;;;;;;;;;5260029;28;20044;-79
2024/01/24 06:09:40;;;;;;;23.95;4.57;;;;;;;;;;5261500;28;20045;-79
2024/01/24 06:12:11;;;;;;;17.95;2.92;;;;;;;;;;5263931;28;20045;-79
2024/01/24 06:14:42;;;;;;;19.40;3.35;;;;;;;;;;5263756;28;20024;-79
2024/01/24 06:17:13;;;;;;;22.23;4.13;;;;;;;;;;5262872;28;20078;-79
2024/01/24 06:19:45;;;;;;;20.50;3.90;;;;;;;;;;5263494;28;20286;-79
2024/01/24 06:22:16;;;;;;;19.80;4.68;;;;;;;;;;5263603;28;20036;-79
2024/01/24 06:24:48;;;;;;;19.67;3.60;;;;;;;;;;5262646;28;20021;-79
2024/01/24 06:27:19;;;;;;;21.58;4.30;;;;;;;;;;5263578;28;20507;-79
2024/01/24 06:29:51;;;;;;;18.80;3.05;;;;;;;;;;5263442;28;20020;-80
2024/01/24 06:32:22;;;;;;;20.27;4.03;;;;;;;;;;5262624;28;20079;-80
2024/01/24 06:34:53;;;;;;;24.55;4.43;;;;;;;;;;5263437;28;20025;-79
2024/01/24 06:37:24;;;;;;;22.98;3.72;;;;;;;;;;5262080;28;20389;-80
2024/01/24 06:39:56;;;;;;;19.95;3.55;;;;;;;;;;5263471;28;20021;-79
2024/01/24 06:42:27;;;;;;;21.52;3.75;;;;;;;;;;5263470;28;20099;-79
2024/01/24 06:44:58;;;;;;;20.27;3.20;;;;;;;;;;5262580;28;20021;-79
2024/01/24 06:47:29;;;;;;;24.20;4.15;;;;;;;;;;5263073;28;20039;-79
2024/01/24 06:50:01;;;;;;;23.33;4.47;;;;;;;;;;5263119;28;20055;-80
2024/01/24 06:52:33;;;;;;;32.88;4.78;;;;;;;;;;5261763;28;20272;-79
2024/01/24 06:55:04;;;;;;;22.10;3.47;;;;;;;;;;5263249;28;20056;-80
2024/01/24 06:57:35;;;;;;;19.23;4.63;;;;;;;;;;5263016;28;20472;-80
2024/01/24 07:00:08;;;;;;;25.77;5.30;;;;;;;;;;5262304;28;20029;-80
2024/01/24 07:02:39;;;;;;;26.40;5.05;;;;;;;;;;5262858;28;20021;-79
2024/01/24 07:05:10;;;;;;;23.23;4.10;;;;;;;;;;5262536;28;20032;-80
2024/01/24 07:07:42;;;;;;;25.50;4.55;;;;;;;;;;5262036;28;20029;-80
2024/01/24 07:10:13;;;;;;;24.17;5.15;;;;;;;;;;5262716;28;20025;-79
2024/01/24 07:12:47;;;;;;;20.15;3.72;;;;;;;;;;5262123;28;20025;-78
2024/01/24 07:15:19;;;;;;;26.33;4.40;;;;;;;;;;5262713;28;20028;-80
2024/01/24 07:17:50;;;;;;;25.50;4.50;;;;;;;;;;5262605;28;20376;-79
2024/01/24 07:20:21;;;;;;;25.17;4.47;;;;;;;;;;5261598;28;20049;-79
2024/01/24 07:22:52;;;;;;;21.08;4.15;;;;;;;;;;5262982;28;20025;-80
2024/01/24 07:25:24;;;;;;;24.50;4.35;;;;;;;;;;5262171;28;20009;-80
2024/01/24 07:27:55;;;;;;;25.27;4.97;;;;;;;;;;5261788;28;20141;-79
2024/01/24 07:30:27;;;;;;;26.92;4.72;;;;;;;;;;5262128;28;20021;-80
2024/01/24 07:32:59;;;;;;;28.52;4.65;;;;;;;;;;5262533;28;20100;-79
2024/01/24 07:35:30;;;;;;;24.33;4.13;;;;;;;;;;5261527;28;20108;-80
2024/01/24 07:38:03;;;;;;;24.42;4.72;;;;;;;;;;5268064;28;20021;-79
2024/01/24 07:40:34;;;;;;;24.13;4.43;;;;;;;;;;5267475;28;20380;-80
2024/01/24 07:43:05;;;;;;;20.20;3.70;;;;;;;;;;5261829;28;20021;-79
2024/01/24 07:45:37;;;;;;;21.42;4.00;;;;;;;;;;5262251;28;20013;-79
2024/01/24 07:48:13;;;;;;;22.40;4.47;;;;;;;;;;5261325;28;20056;-79
2024/01/24 07:50:44;;;;;;;20.17;3.55;;;;;;;;;;5261892;28;20021;-79
2024/01/24 07:53:16;;;;;;;26.08;4.95;;;;;;;;;;5261660;28;20550;-79
2024/01/24 07:55:47;;;;;;;21.35;4.03;;;;;;;;;;5260923;28;20086;-78
2024/01/24 07:58:18;;;;;;;22.60;4.78;;;;;;;;;;5261953;28;20033;-80
2024/01/24 08:00:49;;;;;;;24.63;4.43;;;;;;;;;;5262169;28;20115;-79
2024/01/24 08:03:20;;;;;;;24.52;4.47;;;;;;;;;;5260623;28;20103;-79
2024/01/24 08:05:52;;;;;;;27.68;5.02;;;;;;;;;;5261927;28;20517;-78
2024/01/24 08:08:23;;;;;;;25.42;4.38;;;;;;;;;;5261478;28;20487;-78
2024/01/24 08:10:54;;;;;;;25.23;5.35;;;;;;;;;;5260979;28;20046;-80
2024/01/24 08:13:25;;;;;;;25.50;5.82;;;;;;;;;;5261447;28;20361;-81
2024/01/24 08:15:57;;;;;;;22.75;4.65;;;;;;;;;;5260809;28;20104;-79
2024/01/24 08:18:28;;;;;;;25.52;5.32;;;;;;;;;;5261254;28;20070;-76
2024/01/24 08:20:59;;;;;;;22.20;4.07;;;;;;;;;;5261631;28;20464;-77
2024/01/24 08:23:31;;;;;;;25.20;4.75;;;;;;;;;;5260916;28;20029;-80
2024/01/24 08:26:02;;;;;;;21.20;4.00;;;;;;;;;;5261284;28;20024;-76
2024/01/24 08:28:34;;;;;;;23.45;4.32;;;;;;;;;;5261177;28;20075;-81
2024/01/24 08:31:05;;;;;;;26.20;5.30;;;;;;;;;;5260373;28;20021;-80
2024/01/24 08:33:36;;;;;;;24.50;4.07;;;;;;;;;;5261254;28;20024;-80
2024/01/24 08:36:07;;;;;;;25.38;4.70;;;;;;;;;;5261535;28;20023;-80
2024/01/24 08:38:39;;;;;;;24.52;4.80;;;;;;;;;;5260338;28;20029;-80
2024/01/24 08:41:10;;;;;;;22.08;4.85;;;;;;;;;;5261235;28;20476;-79
2024/01/24 08:43:41;;;;;;;20.85;3.72;;;;;;;;;;5261362;28;20021;-80
2024/01/24 08:46:12;;;;;;;26.77;4.13;;;;;;;;;;5260412;28;20059;-80
2024/01/24 08:48:44;;;;;;;20.40;4.32;;;;;;;;;;5261001;28;20044;-81
2024/01/24 08:51:15;;;;;;;23.23;3.80;;;;;;;;;;5260186;28;20550;-80
2024/01/24 08:53:46;;;;;;;24.98;4.50;;;;;;;;;;5260690;28;20079;-80
2024/01/24 08:56:18;;;;;;;17.83;3.58;;;;;;;;;;5261076;28;20039;-80
2024/01/24 08:58:49;;;;;;;26.02;4.57;;;;;;;;;;5260458;28;20025;-79
2024/01/24 09:01:20;;;;;;;18.67;3.65;;;;;;;;;;5260955;28;20009;-80
2024/01/24 09:03:51;;;;;;;25.70;5.18;;;;;;;;;;5260946;28;20025;-81
2024/01/24 09:06:24;;;;;;;28.23;4.63;;;;;;;;;;5259529;28;20092;-80
2024/01/24 09:08:56;;;;;;;21.60;4.97;;;;;;;;;;5260992;28;20017;-79
2024/01/24 09:11:27;;;;;;;31.52;5.05;;;;;;;;;;5260793;28;20464;-80
2024/01/24 09:13:58;;;;;;;20.65;4.00;;;;;;;;;;5260042;28;20017;-80
2024/01/24 09:16:29;;;;;;;18.50;3.63;;;;;;;;;;5260742;28;20321;-80
2024/01/24 09:19:00;;;;;;;23.35;4.57;;;;;;;;;;5260789;28;20016;-80
2024/01/24 09:21:32;;;;;;;24.46;4.36;;;;;;;;;;5259896;28;20075;-79
2024/01/24 09:24:03;;;;;;;22.77;4.32;;;;;;;;;;5260802;28;20027;-80
2024/01/24 09:26:35;;;;;;;26.77;5.60;;;;;;;;;;5259937;28;20029;-81
2024/01/24 09:29:11;;;;;;;24.70;4.82;;;;;;;;;;5261014;28;20484;-80
2024/01/24 09:31:45;;;;;;;20.33;4.60;;;;;;;;;;5264329;28;20043;-80
2024/01/24 09:34:17;;;;;;;24.27;3.92;;;;;;;;;;5266217;28;20090;-79
2024/01/24 09:36:48;;;;;;;27.60;4.13;;;;;;;;;;5260653;28;20028;-80
2024/01/24 09:39:19;;;;;;;19.75;3.55;;;;;;;;;;5260816;28;20032;-80
2024/01/24 09:41:51;;;;;;;27.17;5.07;;;;;;;;;;5259815;28;20025;-80
2024/01/24 09:44:24;;;;;;;19.30;4.00;;;;;;;;;;5263786;28;20063;-80
2024/01/24 09:46:55;;;;;;;25.15;5.28;;;;;;;;;;5264907;28;20024;-78
2024/01/24 09:49:28;;;;;;;22.98;5.28;;;;;;;;;;5263386;28;20021;-80
2024/01/24 09:52:00;;;;;;;27.63;4.72;;;;;;;;;;5264360;28;20019;-80
2024/01/24 09:54:32;;;;;;;25.00;4.47;;;;;;;;;;5263140;28;20606;-78
2024/01/24 09:57:06;;;;;;;23.95;4.00;;;;;;;;;;5264168;28;20017;-79
2024/01/24 09:59:37;;;;;;;27.77;5.57;;;;;;;;;;5264339;28;20021;-78
2024/01/24 10:02:08;;;;;;;20.85;4.30;;;;;;;;;;5263246;28;20111;-78
2024/01/24 10:04:40;;;;;;;21.45;4.10;;;;;;;;;;5264267;28;20495;-79
2024/01/24 10:07:12;;;;;;;22.38;3.78;;;;;;;;;;5264124;28;20032;-79
2024/01/24 10:09:43;;;;;;;31.13;5.10;;;;;;;;;;5262210;28;20036;-80
2024/01/24 10:12:15;;;;;;;26.88;4.75;;;;;;;;;;5264107;28;20094;-81
2024/01/24 10:14:46;;;;;;;18.60;3.58;;;;;;;;;;5263846;28;20495;-80
2024/01/24 10:17:17;;;;;;;26.75;4.47;;;;;;;;;;5263436;28;20078;-80
2024/01/24 10:19:48;;;;;;;24.30;4.72;;;;;;;;;;5263964;28;20009;-80
2024/01/24 10:22:22;;;;;;;23.75;4.15;;;;;;;;;;5263847;28;20100;-81
2024/01/24 10:24:53;;;;;;;25.83;5.45;;;;;;;;;;5263879;28;20142;-81
2024/01/24 10:27:25;;;;;;;21.40;4.32;;;;;;;;;;5263258;28;20061;-79
2024/01/24 10:29:56;;;;;;;21.67;4.22;;;;;;;;;;5263124;28;20520;-79
2024/01/24 10:32:28;;;;;;;23.75;4.72;;;;;;;;;;5263780;28;20100;-80
2024/01/24 10:35:03;;;;;;;25.42;4.82;;;;;;;;;;5263744;28;20023;-81
2024/01/24 10:37:34;;;;;;;21.75;4.47;;;;;;;;;;5262586;28;20033;-80
2024/01/24 10:40:11;;;;;;;24.35;4.43;;;;;;;;;;5263756;28;20036;-80
2024/01/24 10:42:44;;;;;;;30.80;4.78;;;;;;;;;;5263551;28;20494;-80
2024/01/24 10:45:17;;;;;;;19.02;3.85;;;;;;;;;;5262890;28;20013;-79
2024/01/24 10:47:49;;;;;;;24.33;3.53;;;;;;;;;;5263414;28;20028;-80
2024/01/24 10:50:20;;;;;;;19.30;3.72;;;;;;;;;;5263153;28;20013;-80
2024/01/24 10:52:52;;;;;;;23.08;3.95;;;;;;;;;;5262535;28;20155;-81
2024/01/24 10:55:24;;;;;;;21.42;4.18;;;;;;;;;;5262067;28;20557;-81
2024/01/24 10:57:56;;;;;;;22.85;4.32;;;;;;;;;;5262728;28;20484;-82
2024/01/24 11:00:28;;;;;;;22.88;4.75;;;;;;;;;;5262873;28;20028;-81
2024/01/24 11:03:00;;;;;;;18.58;3.85;;;;;;;;;;5263183;28;20021;-79
2024/01/24 11:05:51;;;;;;;23.45;4.13;;;;;;;;;;5262435;28;20024;-80
2024/01/24 11:08:33;;;;;;;17.45;3.05;;;;;;;;;;5261958;28;20044;-80
2024/01/24 11:11:08;;;;;;;19.58;3.60;;;;;;;;;;5262742;28;20388;-79
2024/01/24 11:13:42;;;;;;;19.88;3.78;;;;;;;;;;5262479;28;20044;-81
2024/01/24 11:16:25;;;;;;;23.20;5.15;;;;;;;;;;5262989;28;20066;-81
2024/01/24 11:19:18;;;;;;;17.00;2.80;;;;;;;;;;5261995;28;20044;-81
2024/01/24 11:21:49;;;;;;;19.48;4.45;;;;;;;;;;5263248;28;20444;-81
2024/01/24 11:24:39;;;;;;;19.23;2.83;;;;;;;;;;5263349;28;20024;-81
2024/01/24 11:27:27;;;;;;;16.42;3.08;;;;;;;;;;5268976;28;20029;-81
2024/01/24 11:30:00;;;;;;;17.42;3.40;;;;;;;;;;5266323;28;20017;-81
2024/01/24 11:32:55;;;;;;;19.58;3.17;;;;;;;;;;5262611;28;20349;-81
2024/01/24 11:35:41;;;;;;;23.25;3.85;;;;;;;;;;5262195;28;20542;-81
2024/01/24 11:38:26;;;;;;;15.77;3.17;;;;;;;;;;5262238;28;20029;-81
2024/01/24 11:41:02;;;;;;;20.42;3.60;;;;;;;;;;5261596;28;20025;-81
2024/01/24 11:43:34;;;;;;;20.35;4.10;;;;;;;;;;5262324;28;20530;-81
2024/01/24 11:46:05;;;;;;;19.92;3.90;;;;;;;;;;5262196;28;20025;-81
2024/01/24 11:48:37;;;;;;;20.25;4.28;;;;;;;;;;5261290;28;20033;-80
2024/01/24 11:51:09;;;;;;;17.08;2.67;;;;;;;;;;5262472;28;20096;-79
2024/01/24 11:53:41;;;;;;;18.05;3.75;;;;;;;;;;5261971;28;20401;-79
2024/01/24 11:56:16;;;;;;;24.02;3.60;;;;;;;;;;5261178;28;20100;-79
2024/01/24 11:58:47;;;;;;;18.40;3.00;;;;;;;;;;5261779;28;20021;-79
2024/01/24 12:01:18;;;;;;;20.77;4.15;;;;;;;;;;5261196;28;20434;-80
2024/01/24 12:03:50;;;;;;;23.33;4.30;;;;;;;;;;5262117;28;20017;-80
2024/01/24 12:06:21;;;;;;;17.63;3.00;;;;;;;;;;5260234;28;20033;-80
2024/01/24 12:08:54;;;;;;;19.67;3.80;;;;;;;;;;5261323;28;20372;-80
2024/01/24 12:11:25;;;;;;;19.08;3.40;;;;;;;;;;5261220;28;20060;-80
2024/01/24 12:13:56;;;;;;;21.73;3.25;;;;;;;;;;5261697;28;20480;-80
2024/01/24 12:16:28;;;;;;;17.73;3.80;;;;;;;;;;5260840;28;20743;-80
2024/01/24 12:19:00;;;;;;;17.13;3.67;;;;;;;;;;5261701;28;20075;-81
2024/01/24 12:21:31;;;;;;;16.42;2.90;;;;;;;;;;5261642;28;20113;-80
2024/01/24 12:24:02;;;;;;;13.23;2.45;;;;;;;;;;5260827;28;20067;-81
2024/01/24 12:26:34;;;;;;;17.83;3.08;;;;;;;;;;5261474;28;20468;-81
2024/01/24 12:29:05;;;;;;;18.95;3.20;;;;;;;;;;5260931;28;20020;-81
2024/01/24 12:31:42;;;;;;;17.92;3.30;;;;;;;;;;5261399;28;20530;-81
2024/01/24 12:34:13;;;;;;;17.25;2.15;;;;;;;;;;5261529;28;20025;-81
2024/01/24 12:36:44;;;;;;;13.43;2.75;;;;;;;;;;5260862;28;20025;-81
2024/01/24 12:39:15;;;;;;;17.45;3.25;;;;;;;;;;5261638;28;20101;-81
2024/01/24 12:41:46;;;;;;;12.70;2.42;;;;;;;;;;5261230;28;20021;-80
2024/01/24 12:44:18;;;;;;;13.18;2.80;;;;;;;;;;5260443;28;20025;-81
2024/01/24 12:46:56;;;;;;;21.60;3.38;;;;;;;;;;5261021;28;20021;-79
2024/01/24 12:49:28;;;;;;;18.50;2.65;;;;;;;;;;5261262;28;20487;-80
2024/01/24 12:51:59;;;;;;;17.10;3.45;;;;;;;;;;5260311;28;20017;-80
2024/01/24 12:54:30;;;;;;;13.63;2.63;;;;;;;;;;5260899;28;20522;-80
2024/01/24 12:57:01;;;;;;;13.38;2.90;;;;;;;;;;5261433;28;20025;-80
2024/01/24 12:59:33;;;;;;;24.05;3.05;;;;;;;;;;5260074;28;20057;-80
2024/01/24 13:02:04;;;;;;;21.13;4.10;;;;;;;;;;5261172;28;20025;-80
2024/01/24 13:04:35;;;;;;;15.35;2.45;;;;;;;;;;5260253;28;20025;-80
2024/01/24 13:07:07;;;;;;;17.05;2.28;;;;;;;;;;5260973;28;20033;-80
2024/01/24 13:09:38;;;;;;;15.40;2.88;;;;;;;;;;5260890;28;20029;-81
2024/01/24 13:12:10;;;;;;;16.98;2.80;;;;;;;;;;5260255;28;20025;-79
2024/01/24 13:14:42;;;;;;;13.40;2.58;;;;;;;;;;5260765;28;20283;-80
2024/01/24 13:17:13;;;;;;;18.42;3.05;;;;;;;;;;5260924;28;20484;-76
2024/01/24 13:19:44;;;;;;;21.40;3.08;;;;;;;;;;5264458;28;20096;-73
2024/01/24 13:22:15;;;;;;;15.18;2.95;;;;;;;;;;5267882;28;20096;-78
2024/01/24 13:24:47;;;;;;;17.70;3.53;;;;;;;;;;5265054;28;20158;-78
2024/01/24 13:27:18;;;;;;;20.42;3.25;;;;;;;;;;5263855;28;20036;-74
2024/01/24 13:29:49;;;;;;;18.42;3.85;;;;;;;;;;5264716;28;20017;-78
2024/01/24 13:32:21;;;;;;;16.98;2.70;;;;;;;;;;5263825;28;20127;-76
2024/01/24 13:34:52;;;;;;;19.00;3.03;;;;;;;;;;5264867;28;20009;-81
2024/01/24 13:37:23;;;;;;;18.98;3.50;;;;;;;;;;5264291;28;20021;-81
2024/01/24 13:39:55;;;;;;;18.58;3.92;;;;;;;;;;5264344;28;20376;-81
2024/01/24 13:42:26;;;;;;;18.45;4.10;;;;;;;;;;5264231;28;20436;-81
2024/01/24 13:44:57;;;;;;;20.30;3.40;;;;;;;;;;5264861;28;20380;-81
2024/01/24 13:47:29;;;;;;;23.17;3.50;;;;;;;;;;5263727;28;20037;-81
2024/01/24 13:50:00;;;;;;;18.05;3.10;;;;;;;;;;5264517;28;20048;-81
2024/01/24 13:52:31;;;;;;;18.77;3.35;;;;;;;;;;5264590;28;20017;-81
2024/01/24 13:55:02;;;;;;;21.00;3.53;;;;;;;;;;5263727;28;20454;-78
2024/01/24 13:57:33;;;;;;;20.02;3.22;;;;;;;;;;5264379;28;20264;-76
2024/01/24 14:00:10;;;;;;;18.27;3.30;;;;;;;;;;5265437;28;20017;-79
2024/01/24 14:02:41;;;;;;;20.02;2.83;;;;;;;;;;5264886;28;20845;-79
2024/01/24 14:05:12;;;;;;;16.77;2.92;;;;;;;;;;5266410;28;20025;-79
2024/01/24 14:07:43;;;;;;;20.85;3.70;;;;;;;;;;5265185;28;20036;-79
2024/01/24 14:10:15;;;;;;;18.92;3.28;;;;;;;;;;5267939;28;20016;-79
2024/01/24 14:12:46;;;;;;;16.50;3.50;;;;;;;;;;5268289;28;20071;-78
2024/01/24 14:15:18;;;;;;;23.38;3.42;;;;;;;;;;5265904;28;20499;-79
2024/01/24 14:17:49;;;;;;;18.10;3.13;;;;;;;;;;5266022;28;20021;-78
2024/01/24 14:20:21;;;;;;;16.02;2.85;;;;;;;;;;5264870;28;20091;-78
2024/01/24 14:22:52;;;;;;;20.92;3.70;;;;;;;;;;5265384;28;20032;-78
2024/01/24 14:25:23;;;;;;;15.73;2.65;;;;;;;;;;5264552;28;20013;-78
2024/01/24 14:27:55;;;;;;;14.65;3.45;;;;;;;;;;5264930;28;20060;-79
2024/01/24 14:30:26;;;;;;;19.45;3.75;;;;;;;;;;5262678;28;20029;-78
2024/01/24 14:32:57;;;;;;;18.27;3.55;;;;;;;;;;5264625;28;20107;-78
2024/01/24 14:35:30;;;;;;;16.98;2.95;;;;;;;;;;5265526;28;20468;-79
2024/01/24 14:38:01;;;;;;;22.02;3.53;;;;;;;;;;5265723;28;20029;-79
2024/01/24 14:40:32;;;;;;;23.48;3.28;;;;;;;;;;5266081;28;20021;-79
2024/01/24 14:43:04;;;;;;;18.00;3.10;;;;;;;;;;5266504;28;20028;-79
2024/01/24 14:45:35;;;;;;;16.45;3.10;;;;;;;;;;5266648;28;20028;-80
2024/01/24 14:48:09;;;;;;;14.95;2.88;;;;;;;;;;5266586;28;20376;-79
2024/01/24 14:50:40;;;;;;;13.63;2.53;;;;;;;;;;5265331;28;20025;-80
2024/01/24 14:53:12;;;;;;;18.75;3.03;;;;;;;;;;5265193;28;20436;-79
2024/01/24 14:55:43;;;;;;;20.75;3.22;;;;;;;;;;5265695;28;20123;-79
2024/01/24 14:58:14;;;;;;;15.93;2.97;;;;;;;;;;5263875;28;20449;-80
2024/01/24 15:00:47;;;;;;;15.40;2.40;;;;;;;;;;5265842;28;20045;-79